createdAt,value
2018-07-14T00:00:34.280Z,66.67
2018-07-14T00:01:37.211Z,66.98
2018-07-14T00:02:41.479Z,67.44
2018-07-14T00:03:44.480Z,68.38
2018-07-14T00:04:47.367Z,68.43
2018-07-14T00:05:50.245Z,68.37
2018-07-14T00:06:53.044Z,68.47
2018-07-14T00:07:56.990Z,69.24
2018-07-14T00:09:00.174Z,69.18
2018-07-14T00:10:03.327Z,69.53
2018-07-14T00:11:08.133Z,70.25
2018-07-14T00:12:11.013Z,69.26
2018-07-14T00:13:13.852Z,69.07
2018-07-14T00:14:16.713Z,69.06
2018-07-14T00:15:19.850Z,69.02
2018-07-14T00:16:22.718Z,68.54
2018-07-14T00:17:26.454Z,69.08
2018-07-14T00:18:29.333Z,69.58
2018-07-14T00:19:33.459Z,70.25
2018-07-14T00:20:36.286Z,70.57
2018-07-14T00:21:40.398Z,70.23
2018-07-14T00:22:43.257Z,71.14
2018-07-14T00:23:46.745Z,70.95
2018-07-14T00:24:50.254Z,71.11
2018-07-14T00:25:57.863Z,70.67
2018-07-14T00:27:02.047Z,70.42
2018-07-14T00:28:05.171Z,70.54
2018-07-14T00:29:08.004Z,70.56
2018-07-14T00:30:11.410Z,70.72
2018-07-14T00:31:14.238Z,70.29
2018-07-14T00:32:17.092Z,70.93
2018-07-14T00:33:19.995Z,71.30
2018-07-14T00:34:23.757Z,70.36
2018-07-14T00:35:26.733Z,69.77
2018-07-14T00:36:30.293Z,70.22
2018-07-14T00:37:33.145Z,70.17
2018-07-14T00:38:37.051Z,70.01
2018-07-14T00:39:39.894Z,71.15
2018-07-14T00:40:43.030Z,70.87
2018-07-14T00:41:46.477Z,71.63
2018-07-14T00:42:49.353Z,71.02
2018-07-14T00:43:52.989Z,71.31
2018-07-14T00:44:55.825Z,70.78
2018-07-14T00:45:59.093Z,70.12
2018-07-14T00:47:02.246Z,71.10
2018-07-14T00:48:05.318Z,70.86
2018-07-14T00:49:08.826Z,70.98
2018-07-14T00:50:11.661Z,71.79
2018-07-14T00:51:14.505Z,72.19
2018-07-14T00:52:20.869Z,73.18
2018-07-14T00:53:23.711Z,72.78
2018-07-14T00:54:26.548Z,73.12
2018-07-14T00:55:30.562Z,73.04
2018-07-14T00:56:34.270Z,73.21
2018-07-14T00:57:37.134Z,73.05
2018-07-14T00:58:39.962Z,73.47
2018-07-14T00:59:43.084Z,73.58
2018-07-14T01:00:47.188Z,72.99
2018-07-14T01:01:51.684Z,73.12
2018-07-14T01:02:55.497Z,72.76
2018-07-14T01:03:59.576Z,73.20
2018-07-14T01:05:02.384Z,73.15
2018-07-14T01:06:06.837Z,72.49
2018-07-14T01:07:10.573Z,71.96
2018-07-14T01:08:14.272Z,72.08
2018-07-14T01:09:17.084Z,72.10
2018-07-14T01:10:19.892Z,73.02
2018-07-14T01:11:22.714Z,72.58
2018-07-14T01:12:26.794Z,72.63
2018-07-14T01:13:29.624Z,73.65
2018-07-14T01:14:32.545Z,73.24
2018-07-14T01:15:36.978Z,72.65
2018-07-14T01:16:40.910Z,72.05
2018-07-14T01:17:43.745Z,72.01
2018-07-14T01:18:46.822Z,70.92
2018-07-14T01:19:50.081Z,71.02
2018-07-14T01:20:52.890Z,70.83
2018-07-14T01:21:57.270Z,71.57
2018-07-14T01:23:00.138Z,70.55
2018-07-14T01:24:03.104Z,70.32
2018-07-14T01:25:06.886Z,70.55
2018-07-14T01:26:09.729Z,71.12
2018-07-14T01:27:12.550Z,71.04
2018-07-14T01:28:15.428Z,71.39
2018-07-14T01:29:18.212Z,71.06
2018-07-14T01:30:21.051Z,70.20
2018-07-14T01:31:24.219Z,70.38
2018-07-14T01:32:27.093Z,70.38
2018-07-14T01:33:29.958Z,69.94
2018-07-14T01:34:34.648Z,69.76
2018-07-14T01:35:38.688Z,69.52
2018-07-14T01:36:41.522Z,69.76
2018-07-14T01:37:44.713Z,70.61
2018-07-14T01:38:47.660Z,70.48
2018-07-14T01:39:50.459Z,70.61
2018-07-14T01:40:53.286Z,70.27
2018-07-14T01:41:56.900Z,69.78
2018-07-14T01:42:59.729Z,70.49
2018-07-14T01:44:02.873Z,70.46
2018-07-14T01:45:05.729Z,70.62
2018-07-14T01:46:08.513Z,70.43
2018-07-14T01:47:11.341Z,70.96
2018-07-14T01:48:14.173Z,71.43
2018-07-14T01:49:17.097Z,70.73
2018-07-14T01:50:20.308Z,71.39
2018-07-14T01:51:23.122Z,70.64
2018-07-14T01:52:25.984Z,70.67
2018-07-14T01:53:28.814Z,71.67
2018-07-14T01:54:31.647Z,70.70
2018-07-14T01:55:34.530Z,70.64
2018-07-14T01:56:38.494Z,70.11
2018-07-14T01:57:41.329Z,70.48
2018-07-14T01:58:44.181Z,70.41
2018-07-14T01:59:47.000Z,71.26
2018-07-14T02:00:49.857Z,71.33
2018-07-14T02:01:52.706Z,71.59
2018-07-14T02:02:55.837Z,70.73
2018-07-14T02:03:58.660Z,71.37
2018-07-14T02:05:01.513Z,71.38
2018-07-14T02:06:04.340Z,70.58
2018-07-14T02:07:08.280Z,70.90
2018-07-14T02:08:11.119Z,71.01
2018-07-14T02:09:14.229Z,70.82
2018-07-14T02:10:18.061Z,71.54
2018-07-14T02:11:20.924Z,71.53
2018-07-14T02:12:24.546Z,70.97
2018-07-14T02:13:27.346Z,71.43
2018-07-14T02:14:30.218Z,71.16
2018-07-14T02:15:33.385Z,70.37
2018-07-14T02:16:36.210Z,70.80
2018-07-14T02:17:39.873Z,70.74
2018-07-14T02:18:42.759Z,70.31
2018-07-14T02:19:45.585Z,70.25
2018-07-14T02:20:49.043Z,69.99
2018-07-14T02:21:52.165Z,70.99
2018-07-14T02:22:54.997Z,71.28
2018-07-14T02:23:57.821Z,71.29
2018-07-14T02:25:00.651Z,71.06
2018-07-14T02:26:03.492Z,71.89
2018-07-14T02:27:06.325Z,71.86
2018-07-14T02:28:09.212Z,71.63
2018-07-14T02:29:12.063Z,71.85
2018-07-14T02:30:15.451Z,71.43
2018-07-14T02:31:18.315Z,70.88
2018-07-14T02:32:21.132Z,70.40
2018-07-14T02:33:24.040Z,70.58
2018-07-14T02:34:27.209Z,71.10
2018-07-14T02:35:30.056Z,71.23
2018-07-14T02:36:32.878Z,71.98
2018-07-14T02:37:35.714Z,72.41
2018-07-14T02:38:38.593Z,73.14
2018-07-14T02:39:41.453Z,72.98
2018-07-14T02:40:44.594Z,73.48
2018-07-14T02:41:47.447Z,73.16
2018-07-14T02:42:50.273Z,72.56
2018-07-14T02:43:53.133Z,72.51
2018-07-14T02:44:56.104Z,71.88
2018-07-14T02:45:58.958Z,71.79
2018-07-14T02:47:02.078Z,71.71
2018-07-14T02:48:06.065Z,71.63
2018-07-14T02:49:08.913Z,72.33
2018-07-14T02:50:11.723Z,71.49
2018-07-14T02:51:14.573Z,72.04
2018-07-14T02:52:17.411Z,72.07
2018-07-14T02:53:22.412Z,72.11
2018-07-14T02:54:27.265Z,71.03
2018-07-14T02:55:30.139Z,71.20
2018-07-14T02:56:32.966Z,71.89
2018-07-14T02:57:35.763Z,71.58
2018-07-14T02:58:38.599Z,71.80
2018-07-14T02:59:41.753Z,71.78
2018-07-14T03:00:44.584Z,71.70
2018-07-14T03:01:47.405Z,71.88
2018-07-14T03:02:50.200Z,71.14
2018-07-14T03:03:53.009Z,71.40
2018-07-14T03:04:55.811Z,72.31
2018-07-14T03:05:58.894Z,71.71
2018-07-14T03:07:01.724Z,72.63
2018-07-14T03:08:04.547Z,72.76
2018-07-14T03:09:07.349Z,72.15
2018-07-14T03:10:10.463Z,72.61
2018-07-14T03:11:13.260Z,72.72
2018-07-14T03:12:16.340Z,73.60
2018-07-14T03:13:19.150Z,74.20
2018-07-14T03:14:23.531Z,74.18
2018-07-14T03:15:26.321Z,74.35
2018-07-14T03:16:29.147Z,74.22
2018-07-14T03:17:31.958Z,74.04
2018-07-14T03:18:35.075Z,74.15
2018-07-14T03:19:37.927Z,73.44
2018-07-14T03:20:40.761Z,73.93
2018-07-14T03:21:43.566Z,73.86
2018-07-14T03:22:46.395Z,73.29
2018-07-14T03:23:49.560Z,73.91
2018-07-14T03:24:52.826Z,73.89
2018-07-14T03:25:55.650Z,73.23
2018-07-14T03:26:58.484Z,73.59
2018-07-14T03:28:01.351Z,72.99
2018-07-14T03:29:04.182Z,73.03
2018-07-14T03:30:06.982Z,72.05
2018-07-14T03:31:10.089Z,72.65
2018-07-14T03:32:12.915Z,72.83
2018-07-14T03:33:15.805Z,73.75
2018-07-14T03:34:18.688Z,73.70
2018-07-14T03:35:21.485Z,73.23
2018-07-14T03:36:24.309Z,74.01
2018-07-14T03:37:27.462Z,73.58
2018-07-14T03:38:30.289Z,73.95
2018-07-14T03:39:33.123Z,73.76
2018-07-14T03:40:35.954Z,73.08
2018-07-14T03:41:38.777Z,73.80
2018-07-14T03:42:41.632Z,73.82
2018-07-14T03:43:44.758Z,73.19
2018-07-14T03:44:47.593Z,73.47
2018-07-14T03:45:50.526Z,74.49
2018-07-14T03:46:53.365Z,74.70
2018-07-14T03:47:56.199Z,74.14
2018-07-14T03:48:59.034Z,74.68
2018-07-14T03:50:02.151Z,75.27
2018-07-14T03:51:05.034Z,75.98
2018-07-14T03:52:07.852Z,75.51
2018-07-14T03:53:10.721Z,75.62
2018-07-14T03:54:13.540Z,75.53
2018-07-14T03:55:16.362Z,75.27
2018-07-14T03:56:19.542Z,75.09
2018-07-14T03:57:22.371Z,75.52
2018-07-14T03:58:25.196Z,75.67
2018-07-14T03:59:28.037Z,75.95
2018-07-14T04:00:30.891Z,76.11
2018-07-14T04:01:33.721Z,76.13
2018-07-14T04:02:36.646Z,75.84
2018-07-14T04:03:39.470Z,76.59
2018-07-14T04:04:42.294Z,76.10
2018-07-14T04:05:45.113Z,75.86
2018-07-14T04:06:47.933Z,76.69
2018-07-14T04:07:50.757Z,76.51
2018-07-14T04:08:53.908Z,76.55
2018-07-14T04:09:56.737Z,76.49
2018-07-14T04:10:59.618Z,76.09
2018-07-14T04:12:02.436Z,76.07
2018-07-14T04:13:05.263Z,76.54
2018-07-14T04:14:08.131Z,75.90
2018-07-14T04:15:13.544Z,75.05
2018-07-14T04:16:16.420Z,74.86
2018-07-14T04:17:19.246Z,74.61
2018-07-14T04:18:22.067Z,74.13
2018-07-14T04:19:24.952Z,75.07
2018-07-14T04:20:27.792Z,74.83
2018-07-14T04:21:30.905Z,74.93
2018-07-14T04:22:33.741Z,74.29
2018-07-14T04:23:36.569Z,75.37
2018-07-14T04:24:39.416Z,75.72
2018-07-14T04:25:42.252Z,75.05
2018-07-14T04:26:45.100Z,75.10
2018-07-14T04:27:48.472Z,76.43
2018-07-14T04:28:51.423Z,76.01
2018-07-14T04:29:54.279Z,76.45
2018-07-14T04:30:57.121Z,75.08
2018-07-14T04:32:00.011Z,74.81
2018-07-14T04:33:02.841Z,74.87
2018-07-14T04:34:06.013Z,74.39
2018-07-14T04:35:08.853Z,73.94
2018-07-14T04:36:11.683Z,73.82
2018-07-14T04:37:14.509Z,74.50
2018-07-14T04:38:17.357Z,73.62
2018-07-14T04:39:20.217Z,73.41
2018-07-14T04:40:23.500Z,74.20
2018-07-14T04:41:26.340Z,73.72
2018-07-14T04:42:29.225Z,73.77
2018-07-14T04:43:32.082Z,73.17
2018-07-14T04:44:34.909Z,73.65
2018-07-14T04:45:37.752Z,72.80
2018-07-14T04:46:41.518Z,73.75
2018-07-14T04:47:44.348Z,72.76
2018-07-14T04:48:47.156Z,72.94
2018-07-14T04:49:49.964Z,72.44
2018-07-14T04:50:52.800Z,72.31
2018-07-14T04:51:55.651Z,72.82
2018-07-14T04:52:59.402Z,72.97
2018-07-14T04:54:02.239Z,73.08
2018-07-14T04:55:05.048Z,72.24
2018-07-14T04:56:07.876Z,72.87
2018-07-14T04:57:10.728Z,72.43
2018-07-14T04:58:13.575Z,72.40
2018-07-14T04:59:16.683Z,72.32
2018-07-14T05:00:19.559Z,72.09
2018-07-14T05:01:22.388Z,71.95
2018-07-14T05:02:25.211Z,71.13
2018-07-14T05:03:28.146Z,71.15
2018-07-14T05:04:30.984Z,71.54
2018-07-14T05:05:34.144Z,71.12
2018-07-14T05:06:36.977Z,71.38
2018-07-14T05:07:39.886Z,71.79
2018-07-14T05:08:42.821Z,71.40
2018-07-14T05:09:45.672Z,71.47
2018-07-14T05:10:48.518Z,71.54
2018-07-14T05:11:51.665Z,72.18
2018-07-14T05:12:54.514Z,71.94
2018-07-14T05:13:57.356Z,72.09
2018-07-14T05:15:00.198Z,71.10
2018-07-14T05:16:06.490Z,71.26
2018-07-14T05:17:09.314Z,71.50
2018-07-14T05:18:12.481Z,71.39
2018-07-14T05:19:15.338Z,70.60
2018-07-14T05:20:18.178Z,70.97
2018-07-14T05:21:21.109Z,70.18
2018-07-14T05:22:23.933Z,70.81
2018-07-14T05:23:26.781Z,70.36
2018-07-14T05:24:29.900Z,71.11
2018-07-14T05:25:32.719Z,70.45
2018-07-14T05:26:35.529Z,70.31
2018-07-14T05:27:38.320Z,70.63
2018-07-14T05:28:41.908Z,70.26
2018-07-14T05:29:44.690Z,70.32
2018-07-14T05:30:47.769Z,70.43
2018-07-14T05:31:50.628Z,70.41
2018-07-14T05:32:53.439Z,69.29
2018-07-14T05:33:56.238Z,69.63
2018-07-14T05:34:59.019Z,69.42
2018-07-14T05:36:01.871Z,68.99
2018-07-14T05:37:05.341Z,68.54
2018-07-14T05:38:08.242Z,69.29
2018-07-14T05:39:11.072Z,68.62
2018-07-14T05:40:13.909Z,67.97
2018-07-14T05:41:16.724Z,68.68
2018-07-14T05:42:19.576Z,68.20
2018-07-14T05:43:22.949Z,68.47
2018-07-14T05:44:25.779Z,67.57
2018-07-14T05:45:28.725Z,68.18
2018-07-14T05:46:31.546Z,68.61
2018-07-14T05:47:34.353Z,69.80
2018-07-14T05:48:37.233Z,69.81
2018-07-14T05:49:40.365Z,69.90
2018-07-14T05:50:43.183Z,69.89
2018-07-14T05:51:46.048Z,70.30
2018-07-14T05:52:48.859Z,71.01
2018-07-14T05:53:51.699Z,70.19
2018-07-14T05:54:54.560Z,69.52
2018-07-14T05:55:57.715Z,69.54
2018-07-14T05:57:00.566Z,68.81
2018-07-14T05:58:03.443Z,69.08
2018-07-14T05:59:06.308Z,68.98
2018-07-14T06:00:09.639Z,68.52
2018-07-14T06:01:12.493Z,68.82
2018-07-14T06:02:15.743Z,69.24
2018-07-14T06:03:18.669Z,68.55
2018-07-14T06:04:21.509Z,68.75
2018-07-14T06:05:24.440Z,68.68
2018-07-14T06:06:27.307Z,68.63
2018-07-14T06:07:30.165Z,69.06
2018-07-14T06:08:33.316Z,68.59
2018-07-14T06:09:36.184Z,68.27
2018-07-14T06:10:39.056Z,68.33
2018-07-14T06:11:42.016Z,69.22
2018-07-14T06:12:44.981Z,68.40
2018-07-14T06:13:49.685Z,68.34
2018-07-14T06:14:53.160Z,67.87
2018-07-14T06:15:55.969Z,68.21
2018-07-14T06:16:58.799Z,68.09
2018-07-14T06:18:01.639Z,67.65
2018-07-14T06:19:04.502Z,67.15
2018-07-14T06:20:07.321Z,67.67
2018-07-14T06:21:10.438Z,67.95
2018-07-14T06:22:13.354Z,69.15
2018-07-14T06:23:16.215Z,68.47
2018-07-14T06:24:19.009Z,69.08
2018-07-14T06:25:21.834Z,68.88
2018-07-14T06:26:24.644Z,68.87
2018-07-14T06:27:27.823Z,68.57
2018-07-14T06:28:30.689Z,68.13
2018-07-14T06:29:33.482Z,67.40
2018-07-14T06:30:36.447Z,68.01
2018-07-14T06:31:39.330Z,67.52
2018-07-14T06:32:42.302Z,67.22
2018-07-14T06:33:45.421Z,67.04
2018-07-14T06:34:48.941Z,67.18
2018-07-14T06:35:51.794Z,67.32
2018-07-14T06:36:54.610Z,67.09
2018-07-14T06:37:59.467Z,66.41
2018-07-14T06:39:02.303Z,67.05
2018-07-14T06:40:05.446Z,66.63
2018-07-14T06:41:08.289Z,65.32
2018-07-14T06:42:11.075Z,65.90
2018-07-14T06:43:14.809Z,65.96
2018-07-14T06:44:19.382Z,65.83
2018-07-14T06:45:22.233Z,66.01
2018-07-14T06:46:27.072Z,64.91
2018-07-14T06:47:30.832Z,64.86
2018-07-14T06:48:33.730Z,64.64
2018-07-14T06:49:36.574Z,64.64
2018-07-14T06:50:39.375Z,64.82
2018-07-14T06:51:42.822Z,64.30
2018-07-14T06:52:46.959Z,65.02
2018-07-14T06:53:51.094Z,64.83
2018-07-14T06:54:53.961Z,64.92
2018-07-14T06:55:56.802Z,64.76
2018-07-14T06:56:59.791Z,63.51
2018-07-14T06:58:02.673Z,64.15
2018-07-14T06:59:05.799Z,64.10
2018-07-14T07:00:08.746Z,63.37
2018-07-14T07:01:12.543Z,62.99
2018-07-14T07:02:16.240Z,63.40
2018-07-14T07:03:19.971Z,63.98
2018-07-14T07:04:22.840Z,62.72
2018-07-14T07:05:26.771Z,63.04
2018-07-14T07:06:30.258Z,62.37
2018-07-14T07:07:33.135Z,61.81
2018-07-14T07:08:35.993Z,61.42
2018-07-14T07:09:38.833Z,60.46
2018-07-14T07:10:46.894Z,60.53
2018-07-14T07:11:50.067Z,60.66
2018-07-14T07:12:54.533Z,60.76
2018-07-14T07:13:57.408Z,60.23
2018-07-14T07:15:00.269Z,59.65
2018-07-14T07:16:03.521Z,59.51
2018-07-14T07:17:08.029Z,59.22
2018-07-14T07:18:12.876Z,59.20
2018-07-14T07:19:16.213Z,58.01
2018-07-14T07:20:19.138Z,57.45
2018-07-14T07:21:22.042Z,57.10
2018-07-14T07:22:24.916Z,57.37
2018-07-14T07:23:27.920Z,56.84
2018-07-14T07:24:31.853Z,56.98
2018-07-14T07:25:34.896Z,55.88
2018-07-14T07:26:37.810Z,56.12
2018-07-14T07:27:40.685Z,56.05
2018-07-14T07:28:43.594Z,54.89
2018-07-14T07:29:46.463Z,55.39
2018-07-14T07:30:50.552Z,55.69
2018-07-14T07:31:53.682Z,54.06
2018-07-14T07:32:59.576Z,53.83
2018-07-14T07:34:03.491Z,54.10
2018-07-14T07:35:06.957Z,54.59
2018-07-14T07:36:13.197Z,54.52
2018-07-14T07:37:16.535Z,54.97
2018-07-14T07:38:19.513Z,55.26
2018-07-14T07:39:24.604Z,53.20
2018-07-14T07:40:27.823Z,53.80
2018-07-14T07:41:31.470Z,53.72
2018-07-14T07:42:34.643Z,53.12
2018-07-14T07:43:38.457Z,53.13
2018-07-14T07:44:44.240Z,53.26
2018-07-14T07:45:47.145Z,52.31
2018-07-14T07:46:50.230Z,51.59
2018-07-14T07:47:54.085Z,51.58
2018-07-14T07:48:59.663Z,50.43
2018-07-14T07:50:02.853Z,50.62
2018-07-14T07:51:05.807Z,51.73
2018-07-14T07:52:08.727Z,51.02
2018-07-14T07:53:11.640Z,50.62
2018-07-14T07:54:14.774Z,51.21
2018-07-14T07:55:17.672Z,51.48
2018-07-14T07:56:21.211Z,52.52
2018-07-14T07:57:24.809Z,51.16
2018-07-14T07:58:28.509Z,51.36
2018-07-14T07:59:31.370Z,50.36
2018-07-14T08:00:39.065Z,50.54
2018-07-14T08:01:41.988Z,50.59
2018-07-14T08:02:45.178Z,50.69
2018-07-14T08:03:48.325Z,50.79
2018-07-14T08:04:51.789Z,51.67
2018-07-14T08:05:54.690Z,51.74
2018-07-14T08:06:57.545Z,50.54
2018-07-14T08:08:01.260Z,50.63
2018-07-14T08:09:05.038Z,50.50
2018-07-14T08:10:07.953Z,49.12
2018-07-14T08:11:11.528Z,48.85
2018-07-14T08:12:15.697Z,48.89
2018-07-14T08:13:18.586Z,49.38
2018-07-14T08:14:22.473Z,48.87
2018-07-14T08:15:25.988Z,48.15
2018-07-14T08:16:29.500Z,49.43
2018-07-14T08:17:32.339Z,47.79
2018-07-14T08:18:36.086Z,48.23
2018-07-14T08:19:39.080Z,48.01
2018-07-14T08:20:42.829Z,47.94
2018-07-14T08:21:47.501Z,48.15
2018-07-14T08:22:51.372Z,48.67
2018-07-14T08:23:57.934Z,48.03
2018-07-14T08:25:01.418Z,47.81
2018-07-14T08:26:04.397Z,47.72
2018-07-14T08:27:07.220Z,47.27
2018-07-14T08:28:11.273Z,47.77
2018-07-14T08:29:14.771Z,47.59
2018-07-14T08:30:17.590Z,47.00
2018-07-14T08:31:21.264Z,47.36
2018-07-14T08:32:24.098Z,46.69
2018-07-14T08:33:29.864Z,46.02
2018-07-14T08:34:33.930Z,46.02
2018-07-14T08:35:37.061Z,45.79
2018-07-14T08:36:39.957Z,45.84
2018-07-14T08:37:42.876Z,46.25
2018-07-14T08:38:45.994Z,45.45
2018-07-14T08:39:49.488Z,44.42
2018-07-14T08:40:52.638Z,44.22
2018-07-14T08:41:57.598Z,44.49
2018-07-14T08:43:00.663Z,44.21
2018-07-14T08:44:07.532Z,43.61
2018-07-14T08:45:10.454Z,44.34
2018-07-14T08:46:14.361Z,42.57
2018-07-14T08:47:21.054Z,41.71
2018-07-14T08:48:24.679Z,43.07
2018-07-14T08:49:28.951Z,42.95
2018-07-14T08:50:32.803Z,42.65
2018-07-14T08:51:37.153Z,44.20
2018-07-14T08:52:40.169Z,43.93
2018-07-14T08:53:45.640Z,44.19
2018-07-14T08:54:49.440Z,44.59
2018-07-14T08:55:54.070Z,44.77
2018-07-14T08:57:00.845Z,42.98
2018-07-14T08:58:05.189Z,43.63
2018-07-14T08:59:09.538Z,41.55
2018-07-14T09:00:13.970Z,42.61
2018-07-14T09:01:17.961Z,43.73
2018-07-14T09:02:22.291Z,43.80
2018-07-14T09:03:29.280Z,42.96
2018-07-14T09:04:38.415Z,42.31
2018-07-14T09:05:42.496Z,42.67
2018-07-14T09:06:45.350Z,43.13
2018-07-14T09:07:49.014Z,41.82
2018-07-14T09:08:54.655Z,40.66
2018-07-14T09:09:57.663Z,40.91
2018-07-14T09:12:11.375Z,40.37
2018-07-14T09:13:15.299Z,40.51
2018-07-14T09:14:19.194Z,42.16
2018-07-14T09:15:22.095Z,42.95
2018-07-14T09:16:25.204Z,42.63
2018-07-14T09:17:28.480Z,43.78
2018-07-14T09:18:31.329Z,43.23
2018-07-14T09:20:22.600Z,42.25
2018-07-14T09:21:27.612Z,43.13
2018-07-14T09:22:33.383Z,42.17
2018-07-14T09:23:37.321Z,42.13
2018-07-14T09:24:42.250Z,41.45
2018-07-14T09:25:45.057Z,41.27
2018-07-14T09:26:48.830Z,42.23
2018-07-14T09:27:51.888Z,41.38
2018-07-14T09:28:55.390Z,41.30
2018-07-14T09:29:59.896Z,40.25
2018-07-14T09:31:04.472Z,40.02
2018-07-14T09:32:07.369Z,39.67
2018-07-14T09:33:12.502Z,40.83
2018-07-14T09:34:16.199Z,39.35
2018-07-14T09:35:19.041Z,39.80
2018-07-14T09:36:22.296Z,37.79
2018-07-14T09:37:25.237Z,37.89
2018-07-14T09:38:29.639Z,37.51
2018-07-14T09:39:34.447Z,37.38
2018-07-14T09:40:37.365Z,38.55
2018-07-14T09:41:40.340Z,36.90
2018-07-14T09:42:43.476Z,37.33
2018-07-14T09:43:47.478Z,36.08
2018-07-14T09:44:50.504Z,36.31
2018-07-14T09:45:54.310Z,36.66
2018-07-14T09:46:57.958Z,36.39
2018-07-14T09:48:01.520Z,35.93
2018-07-14T09:49:10.675Z,35.54
2018-07-14T09:50:15.087Z,34.57
2018-07-14T09:51:19.660Z,36.55
2018-07-14T09:52:23.619Z,37.80
2018-07-14T09:53:26.440Z,37.79
2018-07-14T09:54:29.445Z,38.65
2018-07-14T09:55:34.990Z,38.70
2018-07-14T09:56:37.938Z,38.50
2018-07-14T09:57:42.241Z,38.67
2018-07-14T09:58:45.278Z,37.95
2018-07-14T09:59:48.429Z,37.45
2018-07-14T10:00:59.068Z,36.92
2018-07-14T10:02:04.595Z,36.19
2018-07-14T10:03:08.427Z,35.93
2018-07-14T10:04:12.408Z,35.99
2018-07-14T10:05:15.560Z,35.54
2018-07-14T10:06:20.061Z,36.38
2018-07-14T10:07:24.215Z,36.52
2018-07-14T10:08:27.867Z,38.50
2018-07-14T10:09:31.530Z,38.07
2018-07-14T10:10:34.629Z,38.23
2018-07-14T10:11:37.528Z,37.76
2018-07-14T10:12:40.399Z,37.44
2018-07-14T10:13:43.555Z,37.46
2018-07-14T10:14:46.365Z,36.60
2018-07-14T10:15:49.237Z,36.30
2018-07-14T10:16:52.074Z,36.00
2018-07-14T10:17:54.957Z,38.05
2018-07-14T10:18:57.907Z,38.73
2018-07-14T10:20:01.223Z,38.10
2018-07-14T10:21:05.129Z,37.18
2018-07-14T10:22:08.735Z,38.09
2018-07-14T10:23:14.678Z,36.43
2018-07-14T10:24:17.617Z,35.87
2018-07-14T10:25:20.927Z,36.65
2018-07-14T10:26:24.339Z,38.96
2018-07-14T10:27:27.267Z,38.97
2018-07-14T10:28:30.815Z,38.34
2018-07-14T10:29:33.869Z,36.96
2018-07-14T10:30:38.060Z,36.90
2018-07-14T10:31:41.698Z,37.41
2018-07-14T10:32:46.437Z,37.24
2018-07-14T10:33:50.771Z,35.87
2018-07-14T10:34:53.677Z,36.18
2018-07-14T10:35:58.749Z,36.35
2018-07-14T10:37:02.512Z,35.68
2018-07-14T10:38:05.466Z,36.10
2018-07-14T10:39:09.766Z,35.61
2018-07-14T10:40:12.637Z,35.96
2018-07-14T10:41:15.766Z,36.26
2018-07-14T10:42:19.778Z,35.45
2018-07-14T10:43:22.945Z,35.85
2018-07-14T10:44:25.823Z,34.96
2018-07-14T10:45:28.962Z,34.98
2018-07-14T10:46:31.822Z,35.60
2018-07-14T10:47:34.699Z,36.72
2018-07-14T10:48:37.680Z,37.57
2018-07-14T10:49:40.631Z,37.71
2018-07-14T10:50:43.531Z,36.71
2018-07-14T10:51:47.561Z,37.32
2018-07-14T10:52:50.491Z,38.40
2018-07-14T10:53:53.300Z,39.62
2018-07-14T10:54:56.531Z,39.24
2018-07-14T10:56:00.363Z,39.36
2018-07-14T10:57:04.059Z,39.26
2018-07-14T10:58:07.259Z,38.63
2018-07-14T10:59:10.130Z,39.29
2018-07-14T11:00:13.748Z,37.64
2018-07-14T11:01:16.566Z,38.42
2018-07-14T11:02:19.410Z,38.08
2018-07-14T11:03:22.272Z,37.26
2018-07-14T11:04:25.180Z,36.86
2018-07-14T11:05:27.981Z,36.71
2018-07-14T11:06:30.814Z,36.21
2018-07-14T11:07:33.708Z,35.51
2018-07-14T11:08:36.584Z,35.36
2018-07-14T11:09:41.210Z,35.72
2018-07-14T11:10:44.993Z,36.22
2018-07-14T11:11:47.824Z,36.56
2018-07-14T11:12:51.649Z,37.24
2018-07-14T11:13:54.788Z,37.16
2018-07-14T11:14:58.248Z,36.13
2018-07-14T11:16:03.281Z,35.29
2018-07-14T11:17:08.232Z,35.94
2018-07-14T11:18:12.450Z,34.54
2018-07-14T11:19:15.281Z,34.39
2018-07-14T11:20:18.447Z,34.51
2018-07-14T11:21:21.294Z,35.80
2018-07-14T11:22:26.399Z,35.54
2018-07-14T11:23:32.680Z,34.79
2018-07-14T11:24:38.625Z,36.59
2018-07-14T11:25:42.324Z,37.77
2018-07-14T11:26:46.633Z,38.07
2018-07-14T11:27:51.141Z,36.85
2018-07-14T11:28:54.748Z,37.07
2018-07-14T11:29:57.572Z,37.63
2018-07-14T11:31:00.589Z,36.68
2018-07-14T11:32:03.436Z,36.47
2018-07-14T11:33:09.800Z,36.23
2018-07-14T11:34:12.646Z,36.38
2018-07-14T11:35:18.869Z,35.70
2018-07-14T11:36:21.693Z,35.03
2018-07-14T11:37:24.719Z,34.61
2018-07-14T11:38:27.526Z,34.96
2018-07-14T11:39:30.353Z,34.47
2018-07-14T11:40:33.205Z,35.87
2018-07-14T11:41:36.460Z,37.58
2018-07-14T11:42:39.287Z,37.54
2018-07-14T11:43:43.670Z,39.34
2018-07-14T11:44:46.553Z,37.38
2018-07-14T11:45:49.414Z,37.40
2018-07-14T11:46:52.220Z,37.73
2018-07-14T11:47:58.639Z,37.47
2018-07-14T11:49:02.983Z,37.99
2018-07-14T11:50:07.307Z,37.25
2018-07-14T11:51:11.102Z,36.50
2018-07-14T11:52:13.933Z,37.62
2018-07-14T11:53:16.798Z,38.34
2018-07-14T11:54:20.141Z,38.79
2018-07-14T11:55:22.996Z,37.93
2018-07-14T11:56:25.948Z,37.33
2018-07-14T11:57:28.773Z,37.87
2018-07-14T11:58:31.602Z,37.05
2018-07-14T11:59:34.488Z,36.48
2018-07-14T12:00:38.542Z,36.02
2018-07-14T12:01:41.460Z,37.75
2018-07-14T12:02:45.456Z,36.84
2018-07-14T12:03:48.276Z,36.47
2018-07-14T12:04:51.096Z,36.69
2018-07-14T12:05:54.592Z,36.59
2018-07-14T12:06:58.767Z,37.68
2018-07-14T12:08:01.700Z,38.20
2018-07-14T12:09:07.609Z,37.23
2018-07-14T12:10:11.577Z,38.00
2018-07-14T12:11:15.424Z,39.47
2018-07-14T12:12:18.864Z,38.79
2018-07-14T12:13:23.516Z,39.38
2018-07-14T12:14:28.158Z,38.79
2018-07-14T12:15:30.962Z,39.14
2018-07-14T12:16:33.861Z,40.04
2018-07-14T12:17:37.476Z,39.91
2018-07-14T12:18:41.398Z,39.40
2018-07-14T12:19:49.676Z,38.12
2018-07-14T12:20:52.479Z,38.38
2018-07-14T12:21:55.462Z,36.32
2018-07-14T12:22:58.865Z,37.19
2018-07-14T12:24:02.938Z,37.64
2018-07-14T12:25:05.897Z,36.10
2018-07-14T12:26:10.068Z,36.42
2018-07-14T12:27:12.905Z,37.52
2018-07-14T12:28:15.772Z,37.00
2018-07-14T12:29:18.625Z,37.41
2018-07-14T12:30:21.724Z,35.69
2018-07-14T12:31:24.580Z,37.23
2018-07-14T12:32:27.739Z,36.28
2018-07-14T12:33:32.064Z,36.99
2018-07-14T12:34:36.440Z,36.16
2018-07-14T12:35:40.869Z,35.49
2018-07-14T12:36:44.506Z,35.99
2018-07-14T12:37:47.318Z,37.41
2018-07-14T12:38:50.477Z,35.82
2018-07-14T12:39:53.426Z,35.70
2018-07-14T12:40:57.256Z,36.89
2018-07-14T12:42:02.693Z,36.64
2018-07-14T12:43:06.796Z,37.16
2018-07-14T12:44:09.708Z,36.33
2018-07-14T12:45:12.861Z,34.86
2018-07-14T12:46:15.728Z,34.00
2018-07-14T12:47:18.618Z,34.46
2018-07-14T12:48:21.569Z,33.92
2018-07-14T12:49:26.669Z,34.81
2018-07-14T12:50:30.583Z,34.09
2018-07-14T12:51:34.703Z,33.47
2018-07-14T12:52:37.780Z,34.03
2018-07-14T12:53:40.648Z,33.64
2018-07-14T12:54:43.491Z,33.19
2018-07-14T12:55:46.895Z,34.88
2018-07-14T12:56:49.726Z,33.97
2018-07-14T12:57:53.850Z,34.05
2018-07-14T12:58:56.810Z,34.69
2018-07-14T13:00:00.479Z,32.96
2018-07-14T13:01:03.415Z,34.01
2018-07-14T13:02:06.268Z,32.56
2018-07-14T13:03:13.929Z,33.82
2018-07-14T13:04:17.100Z,33.27
2018-07-14T13:05:20.567Z,32.61
2018-07-14T13:06:25.393Z,31.88
2018-07-14T13:07:28.294Z,32.81
2018-07-14T13:08:31.219Z,33.98
2018-07-14T13:09:35.029Z,34.85
2018-07-14T13:10:39.276Z,34.43
2018-07-14T13:11:43.970Z,33.90
2018-07-14T13:12:47.452Z,34.29
2018-07-14T13:13:52.537Z,32.95
2018-07-14T13:14:55.390Z,33.79
2018-07-14T13:15:58.265Z,34.12
2018-07-14T13:17:01.496Z,33.20
2018-07-14T13:18:04.572Z,32.69
2018-07-14T13:19:08.336Z,32.79
2018-07-14T13:20:11.177Z,33.21
2018-07-14T13:21:14.055Z,32.53
2018-07-14T13:22:16.913Z,33.72
2018-07-14T13:23:21.945Z,32.90
2018-07-14T13:24:25.453Z,31.60
2018-07-14T13:25:28.318Z,32.55
2018-07-14T13:26:31.174Z,31.69
2018-07-14T13:27:35.222Z,30.47
2018-07-14T13:28:38.267Z,30.53
2018-07-14T13:29:45.859Z,31.15
2018-07-14T13:30:51.672Z,31.43
2018-07-14T13:31:55.247Z,31.53
2018-07-14T13:32:58.348Z,31.08
2018-07-14T13:34:05.263Z,30.69
2018-07-14T13:35:08.161Z,29.41
2018-07-14T13:36:14.152Z,30.67
2018-07-14T13:37:19.616Z,31.57
2018-07-14T13:38:23.429Z,31.25